createdAt,value
2018-01-22T00:00:07.212Z,1.40
2018-01-22T00:02:45.614Z,1.40
2018-01-22T00:05:13.148Z,1.40
2018-01-22T00:07:40.675Z,1.40
2018-01-22T00:10:08.612Z,1.40
2018-01-22T00:12:36.044Z,1.40
2018-01-22T00:15:03.472Z,1.40
2018-01-22T00:17:31.696Z,1.40
2018-01-22T00:19:59.492Z,1.40
2018-01-22T00:22:26.922Z,1.40
2018-01-22T00:24:54.352Z,1.40
2018-01-22T00:27:21.875Z,1.40
2018-01-22T00:29:49.334Z,1.40
2018-01-22T00:32:16.760Z,1.40
2018-01-22T00:34:44.217Z,1.40
2018-01-22T00:37:11.653Z,1.40
2018-01-22T00:39:39.116Z,1.40
2018-01-22T00:42:06.556Z,1.40
2018-01-22T00:44:34.964Z,1.40
2018-01-22T00:47:02.398Z,1.40
2018-01-22T00:49:30.924Z,1.40
2018-01-22T00:51:58.389Z,1.40
2018-01-22T00:54:26.016Z,1.40
2018-01-22T00:56:53.461Z,1.40
2018-01-22T00:59:20.887Z,1.40
2018-01-22T01:01:49.232Z,1.40
2018-01-22T01:04:16.720Z,1.40
2018-01-22T01:06:44.912Z,1.40
2018-01-22T01:09:12.344Z,1.40
2018-01-22T01:11:40.573Z,1.40
2018-01-22T01:14:08.025Z,1.40
2018-01-22T01:16:35.455Z,1.40
2018-01-22T01:19:03.787Z,1.40
2018-01-22T01:21:31.239Z,1.40
2018-01-22T01:23:58.672Z,1.40
2018-01-22T01:26:26.174Z,1.50
2018-01-22T01:28:53.589Z,1.40
2018-01-22T01:31:21.044Z,1.40
2018-01-22T01:33:48.640Z,1.40
2018-01-22T01:36:16.228Z,1.40
2018-01-22T01:38:44.444Z,1.40
2018-01-22T01:41:11.874Z,1.40
2018-01-22T01:43:39.601Z,1.40
2018-01-22T01:46:07.031Z,1.50
2018-01-22T01:48:34.506Z,1.50
2018-01-22T01:51:02.652Z,1.40
2018-01-22T01:53:30.075Z,1.40
2018-01-22T01:55:58.288Z,1.40
2018-01-22T01:58:25.952Z,1.40
2018-01-22T02:00:55.384Z,1.40
2018-01-22T02:03:22.836Z,1.40
2018-01-22T02:05:50.268Z,1.40
2018-01-22T02:08:19.661Z,1.40
2018-01-22T02:10:47.089Z,1.40
2018-01-22T02:13:15.311Z,1.40
2018-01-22T02:15:42.787Z,1.40
2018-01-22T02:18:10.344Z,1.40
2018-01-22T02:20:37.776Z,1.40
2018-01-22T02:23:05.244Z,1.40
2018-01-22T02:25:32.672Z,1.40
2018-01-22T02:28:00.104Z,1.40
2018-01-22T02:30:28.331Z,1.40
2018-01-22T02:32:55.764Z,1.40
2018-01-22T02:35:23.329Z,1.50
2018-01-22T02:37:50.757Z,1.40
2018-01-22T02:40:18.980Z,1.50
2018-01-22T02:42:46.421Z,1.50
2018-01-22T02:45:14.100Z,1.50
2018-01-22T02:47:41.534Z,1.50
2018-01-22T02:50:09.044Z,1.50
2018-01-22T02:52:36.989Z,1.50
2018-01-22T02:55:04.427Z,1.50
2018-01-22T02:57:31.856Z,1.50
2018-01-22T03:00:00.107Z,1.50
2018-01-22T03:02:27.516Z,1.50
2018-01-22T03:04:54.939Z,1.50
2018-01-22T03:07:23.223Z,1.50
2018-01-22T03:09:50.656Z,1.50
2018-01-22T03:12:18.108Z,1.50
2018-01-22T03:14:45.537Z,1.50
2018-01-22T03:17:13.028Z,1.50
2018-01-22T03:19:40.457Z,1.60
2018-01-22T03:22:07.994Z,1.60
2018-01-22T03:24:35.420Z,1.60
2018-01-22T03:27:03.639Z,1.50
2018-01-22T03:29:32.039Z,1.60
2018-01-22T03:31:59.676Z,1.50
2018-01-22T03:34:27.120Z,1.60
2018-01-22T03:36:54.593Z,1.60
2018-01-22T03:39:23.080Z,1.60
2018-01-22T03:41:50.508Z,1.60
2018-01-22T03:44:17.968Z,1.60
2018-01-22T03:46:45.388Z,1.60
2018-01-22T03:49:12.883Z,1.60
2018-01-22T03:51:40.312Z,1.60
2018-01-22T03:54:08.583Z,1.60
2018-01-22T03:56:36.775Z,1.60
2018-01-22T03:59:04.204Z,1.60
2018-01-22T04:01:31.753Z,1.60
2018-01-22T04:03:59.183Z,1.60
2018-01-22T04:06:26.896Z,1.60
2018-01-22T04:08:55.092Z,1.70
2018-01-22T04:11:22.520Z,1.70
2018-01-22T04:13:49.972Z,1.70
2018-01-22T04:16:17.405Z,1.70
2018-01-22T04:18:44.915Z,1.70
2018-01-22T04:21:13.132Z,1.70
2018-01-22T04:23:40.563Z,1.70
2018-01-22T04:26:08.360Z,1.70
2018-01-22T04:28:35.787Z,1.70
2018-01-22T04:31:03.220Z,1.80
2018-01-22T04:33:31.449Z,1.80
2018-01-22T04:35:58.885Z,1.80
2018-01-22T04:38:26.464Z,1.80
2018-01-22T04:40:53.967Z,1.80
2018-01-22T04:43:26.398Z,1.80
2018-01-22T04:45:53.823Z,1.80
2018-01-22T04:48:21.312Z,1.80
2018-01-22T04:50:48.766Z,1.80
2018-01-22T04:53:16.540Z,1.80
2018-01-22T04:55:43.973Z,1.80
2018-01-22T04:58:12.241Z,1.80
2018-01-22T05:00:48.876Z,1.80
2018-01-22T05:03:19.947Z,1.80
2018-01-22T05:05:47.372Z,1.80
2018-01-22T05:08:14.803Z,1.80
2018-01-22T05:10:42.263Z,1.80
2018-01-22T05:13:09.695Z,1.90
2018-01-22T05:15:37.148Z,1.90
2018-01-22T05:18:04.577Z,1.90
2018-01-22T05:20:32.852Z,1.90
2018-01-22T05:23:01.075Z,1.90
2018-01-22T05:25:28.970Z,1.90
2018-01-22T05:27:56.378Z,1.90
2018-01-22T05:30:23.800Z,1.90
2018-01-22T05:32:52.050Z,1.90
2018-01-22T05:35:19.480Z,1.90
2018-01-22T05:37:46.911Z,1.90
2018-01-22T05:40:14.712Z,1.90
2018-01-22T05:42:42.436Z,1.90
2018-01-22T05:45:09.864Z,1.90
2018-01-22T05:47:37.376Z,1.90
2018-01-22T05:50:06.018Z,1.90
2018-01-22T05:52:34.215Z,1.90
2018-01-22T05:55:02.220Z,2.00
2018-01-22T05:57:29.661Z,2.00
2018-01-22T05:59:57.852Z,2.00
2018-01-22T06:02:25.312Z,1.90
2018-01-22T06:04:52.771Z,2.00
2018-01-22T06:07:20.208Z,2.00
2018-01-22T06:09:47.932Z,2.00
2018-01-22T06:12:16.136Z,2.00
2018-01-22T06:14:43.567Z,2.00
2018-01-22T06:17:11.886Z,2.00
2018-01-22T06:19:39.665Z,2.00
2018-01-22T06:22:08.061Z,2.10
2018-01-22T06:24:35.487Z,2.00
2018-01-22T06:27:03.104Z,2.10
2018-01-22T06:29:31.303Z,2.10
2018-01-22T06:31:58.736Z,2.10
2018-01-22T06:34:27.125Z,2.10
2018-01-22T06:36:55.323Z,2.10
2018-01-22T06:39:22.786Z,2.10
2018-01-22T06:41:50.265Z,2.10
2018-01-22T06:44:17.704Z,2.10
2018-01-22T06:46:45.979Z,2.20
2018-01-22T06:49:13.393Z,2.10
2018-01-22T06:51:41.616Z,2.20
2018-01-22T06:54:09.072Z,2.20
2018-01-22T06:56:36.573Z,2.20
2018-01-22T06:59:04.015Z,2.20
2018-01-22T07:01:31.452Z,2.20
2018-01-22T07:03:58.998Z,2.20
2018-01-22T07:06:26.441Z,2.20
2018-01-22T07:08:53.863Z,2.30
2018-01-22T07:11:21.323Z,2.30
2018-01-22T07:13:49.713Z,2.30
2018-01-22T07:16:17.916Z,2.30
2018-01-22T07:18:45.458Z,2.40
2018-01-22T07:21:13.664Z,2.40
2018-01-22T07:23:42.164Z,2.40
2018-01-22T07:26:09.776Z,2.40
2018-01-22T07:28:37.984Z,2.40
2018-01-22T07:31:05.415Z,2.40
2018-01-22T07:33:32.885Z,2.40
2018-01-22T07:36:00.324Z,2.50
2018-01-22T07:38:28.787Z,2.50
2018-01-22T07:40:57.011Z,2.50
2018-01-22T07:43:24.452Z,2.50
2018-01-22T07:45:52.091Z,2.50
2018-01-22T07:48:20.316Z,2.50
2018-01-22T07:50:48.740Z,2.50
2018-01-22T07:53:16.173Z,2.50
2018-01-22T07:55:43.628Z,2.60
2018-01-22T07:58:11.470Z,2.60
2018-01-22T08:00:38.908Z,2.60
2018-01-22T08:03:07.341Z,2.60
2018-01-22T08:05:35.080Z,2.60
2018-01-22T08:08:02.553Z,2.60
2018-01-22T08:10:29.983Z,2.60
2018-01-22T08:12:57.440Z,2.70
2018-01-22T08:15:24.875Z,2.70
2018-01-22T08:17:52.416Z,2.70
2018-01-22T08:20:20.627Z,2.70
2018-01-22T08:22:48.065Z,2.70
2018-01-22T08:25:15.600Z,2.70
2018-01-22T08:27:43.800Z,2.70
2018-01-22T08:30:11.304Z,2.70
2018-01-22T08:32:39.072Z,2.80
2018-01-22T08:35:06.471Z,2.80
2018-01-22T08:37:33.907Z,2.80
2018-01-22T08:40:02.333Z,2.80
2018-01-22T08:42:29.768Z,2.80
2018-01-22T08:44:57.435Z,2.80
2018-01-22T08:47:24.868Z,2.80
2018-01-22T08:49:53.352Z,2.80
2018-01-22T08:52:21.856Z,2.80
2018-01-22T08:54:49.326Z,2.80
2018-01-22T08:57:16.763Z,2.90
2018-01-22T08:59:44.688Z,2.90
2018-01-22T09:02:12.122Z,2.90
2018-01-22T09:04:39.559Z,2.90
2018-01-22T09:07:07.119Z,2.90
2018-01-22T09:09:34.589Z,3.00
2018-01-22T09:12:02.052Z,3.00
2018-01-22T09:14:29.521Z,3.00
2018-01-22T09:16:59.364Z,3.00
2018-01-22T09:19:26.809Z,3.00
2018-01-22T09:21:54.255Z,3.10
2018-01-22T09:24:22.096Z,3.10
2018-01-22T09:26:49.541Z,3.10
2018-01-22T09:29:16.988Z,3.10
2018-01-22T09:31:44.448Z,3.10
2018-01-22T09:34:11.879Z,3.10
2018-01-22T09:36:55.056Z,3.20
2018-01-22T09:39:25.196Z,3.20
2018-01-22T09:41:53.155Z,3.20
2018-01-22T09:44:20.597Z,3.20
2018-01-22T09:46:48.041Z,3.30
2018-01-22T09:49:16.769Z,3.30
2018-01-22T09:51:44.421Z,3.30
2018-01-22T09:54:11.904Z,3.30
2018-01-22T09:56:39.472Z,3.40
2018-01-22T09:59:06.911Z,3.40
2018-01-22T10:01:34.371Z,3.40
2018-01-22T10:04:01.831Z,3.50
2018-01-22T10:06:29.292Z,3.50
2018-01-22T10:08:56.728Z,3.60
2018-01-22T10:11:24.286Z,3.60
2018-01-22T10:13:51.728Z,3.70
2018-01-22T10:16:19.938Z,3.80
2018-01-22T10:18:48.772Z,3.80
2018-01-22T10:21:16.234Z,3.80
2018-01-22T10:23:43.664Z,3.90
2018-01-22T10:26:11.912Z,4.00
2018-01-22T10:28:39.344Z,4.00
2018-01-22T10:31:06.816Z,4.00
2018-01-22T10:33:34.256Z,4.00
2018-01-22T10:36:05.912Z,4.10
2018-01-22T10:38:33.363Z,4.10
2018-01-22T10:41:01.131Z,4.10
2018-01-22T10:43:28.571Z,4.10
2018-01-22T10:45:56.016Z,4.10
2018-01-22T10:48:24.336Z,4.20
2018-01-22T10:50:51.781Z,4.20
2018-01-22T10:53:19.290Z,4.30
2018-01-22T10:55:46.725Z,4.30
2018-01-22T10:58:14.184Z,4.40
2018-01-22T11:00:41.615Z,4.40
2018-01-22T11:03:10.420Z,4.50
2018-01-22T11:05:37.860Z,4.50
2018-01-22T11:08:05.308Z,4.60
2018-01-22T11:10:32.900Z,4.70
2018-01-22T11:13:00.336Z,4.80
2018-01-22T11:15:33.627Z,4.90
2018-01-22T11:18:01.073Z,5.00
2018-01-22T11:20:28.548Z,5.10
2018-01-22T11:22:56.001Z,5.10
2018-01-22T11:25:23.464Z,5.20
2018-01-22T11:27:51.237Z,5.30
2018-01-22T11:30:19.652Z,5.30
2018-01-22T11:32:47.091Z,5.40
2018-01-22T11:35:14.777Z,5.50
2018-01-22T11:37:42.210Z,5.50
2018-01-22T11:40:09.649Z,5.60
2018-01-22T11:42:37.112Z,5.70
2018-01-22T11:45:04.556Z,5.80
2018-01-22T11:47:38.996Z,5.90
2018-01-22T11:50:06.432Z,5.90
2018-01-22T11:52:33.952Z,5.90
2018-01-22T11:55:02.165Z,6.00
2018-01-22T11:57:29.628Z,6.00
2018-01-22T11:59:57.076Z,6.10
2018-01-22T12:02:24.516Z,6.10
2018-01-22T12:04:52.424Z,6.10
2018-01-22T12:07:19.860Z,6.20
2018-01-22T12:09:47.306Z,6.30
2018-01-22T12:12:14.900Z,6.30
2018-01-22T12:14:42.344Z,6.40
2018-01-22T12:17:09.823Z,6.40
2018-01-22T12:19:40.376Z,6.50
2018-01-22T12:22:08.589Z,6.60
2018-01-22T12:24:36.022Z,6.50
2018-01-22T12:27:06.916Z,6.60
2018-01-22T12:29:34.360Z,6.60
2018-01-22T12:32:04.693Z,6.70
2018-01-22T12:34:32.126Z,6.70
2018-01-22T12:36:59.555Z,6.80
2018-01-22T12:39:27.876Z,6.90
2018-01-22T12:41:55.335Z,6.80
2018-01-22T12:44:22.787Z,6.90
2018-01-22T12:46:51.559Z,6.90
2018-01-22T12:49:19.004Z,6.90
2018-01-22T12:51:47.207Z,6.90
2018-01-22T12:54:14.800Z,6.90
2018-01-22T12:56:42.269Z,6.90
2018-01-22T12:59:09.712Z,6.90
2018-01-22T13:01:37.491Z,6.90
2018-01-22T13:04:05.000Z,6.90
2018-01-22T13:06:33.209Z,7.00
2018-01-22T13:09:00.664Z,6.90
2018-01-22T13:11:28.100Z,6.90
2018-01-22T13:13:55.982Z,7.00
2018-01-22T13:16:23.421Z,7.00
2018-01-22T13:18:50.872Z,7.00
2018-01-22T13:21:18.861Z,7.00
2018-01-22T13:23:46.301Z,7.00
2018-01-22T13:26:13.742Z,7.00
2018-01-22T13:28:41.221Z,7.00
2018-01-22T13:31:08.660Z,7.00
2018-01-22T13:33:36.160Z,7.00
2018-01-22T13:36:03.600Z,7.00
2018-01-22T13:38:31.064Z,7.00
2018-01-22T13:41:04.239Z,7.10
2018-01-22T13:43:31.668Z,7.10
2018-01-22T13:45:59.128Z,7.10
2018-01-22T13:48:31.889Z,7.10
2018-01-22T13:51:00.113Z,7.20
2018-01-22T13:53:27.552Z,7.10
2018-01-22T13:55:55.014Z,7.10
2018-01-22T13:58:22.452Z,7.10
2018-01-22T14:00:50.676Z,7.10
2018-01-22T14:03:18.149Z,7.10
2018-01-22T14:05:45.577Z,7.10
2018-01-22T14:08:13.189Z,7.10
2018-01-22T14:10:41.396Z,7.10
2018-01-22T14:13:09.291Z,7.10
2018-01-22T14:15:36.732Z,7.10
2018-01-22T14:18:04.200Z,7.10
2018-01-22T14:20:31.667Z,7.10
2018-01-22T14:22:59.133Z,7.10
2018-01-22T14:25:31.712Z,7.10
2018-01-22T14:28:00.097Z,7.10
2018-01-22T14:30:27.731Z,7.10
2018-01-22T14:32:55.169Z,7.10
2018-01-22T14:35:22.635Z,7.10
2018-01-22T14:37:50.184Z,7.10
2018-01-22T14:40:17.624Z,7.10
2018-01-22T14:42:47.487Z,7.10
2018-01-22T14:45:20.805Z,7.00
2018-01-22T14:47:49.671Z,7.00
2018-01-22T14:50:17.162Z,7.00
2018-01-22T14:52:44.604Z,7.00
2018-01-22T14:55:14.504Z,7.00
2018-01-22T14:57:44.425Z,7.00
2018-01-22T15:00:12.064Z,7.00
2018-01-22T15:02:39.530Z,7.00
2018-01-22T15:05:06.997Z,7.00
2018-01-22T15:07:34.469Z,7.00
2018-01-22T15:10:02.319Z,7.00
2018-01-22T15:12:29.815Z,6.90
2018-01-22T15:14:58.020Z,6.90
2018-01-22T15:17:25.827Z,6.90
2018-01-22T15:19:53.297Z,6.90
2018-01-22T15:22:20.748Z,6.90
2018-01-22T15:24:48.321Z,6.90
2018-01-22T15:27:15.766Z,6.90
2018-01-22T15:29:43.204Z,6.90
2018-01-22T15:32:10.676Z,6.80
2018-01-22T15:34:38.116Z,6.80
2018-01-22T15:37:06.586Z,6.80
2018-01-22T15:39:34.037Z,6.80
2018-01-22T15:42:01.605Z,6.80
2018-01-22T15:44:29.044Z,6.80
2018-01-22T15:46:56.731Z,6.70
2018-01-22T15:49:24.835Z,6.70
2018-01-22T15:51:52.272Z,6.70
2018-01-22T15:54:19.717Z,6.70
2018-01-22T15:56:47.171Z,6.70
2018-01-22T15:59:14.644Z,6.70
2018-01-22T16:01:42.088Z,6.70
2018-01-22T16:04:09.540Z,6.70
2018-01-22T16:06:37.149Z,6.70
2018-01-22T16:09:04.975Z,6.60
2018-01-22T16:11:32.411Z,6.60
2018-01-22T16:14:00.843Z,6.60
2018-01-22T16:16:28.619Z,6.60
2018-01-22T16:18:56.056Z,6.60
2018-01-22T16:21:23.937Z,6.60
2018-01-22T16:23:51.504Z,6.60
2018-01-22T16:26:18.939Z,6.50
2018-01-22T16:28:46.416Z,6.50
2018-01-22T16:31:13.864Z,6.50
2018-01-22T16:33:41.326Z,6.50
2018-01-22T16:36:08.772Z,6.50
2018-01-22T16:38:37.552Z,6.50
2018-01-22T16:41:04.997Z,6.50
2018-01-22T16:43:32.427Z,6.50
2018-01-22T16:46:00.184Z,6.50
2018-01-22T16:48:28.389Z,6.50
2018-01-22T16:50:56.137Z,6.40
2018-01-22T16:53:23.609Z,6.50
2018-01-22T16:55:58.897Z,6.40
2018-01-22T16:58:26.340Z,6.40
2018-01-22T17:00:53.776Z,6.40
2018-01-22T17:03:21.488Z,6.40
2018-01-22T17:05:49.697Z,6.40
2018-01-22T17:08:17.139Z,6.40
2018-01-22T17:10:48.751Z,6.40
2018-01-22T17:13:16.188Z,6.40
2018-01-22T17:15:43.704Z,6.40
2018-01-22T17:18:11.163Z,6.30
2018-01-22T17:20:39.652Z,6.30
2018-01-22T17:23:07.440Z,6.30
2018-01-22T17:25:34.882Z,6.30
2018-01-22T17:28:03.317Z,6.20
2018-01-22T17:30:30.780Z,6.20
2018-01-22T17:32:58.307Z,6.20
2018-01-22T17:35:25.795Z,6.20
2018-01-22T17:37:53.632Z,6.20
2018-01-22T17:40:21.072Z,6.10
2018-01-22T17:42:49.312Z,6.20
2018-01-22T17:45:17.512Z,6.20
2018-01-22T17:47:46.325Z,6.10
2018-01-22T17:50:13.784Z,6.20
2018-01-22T17:52:41.326Z,6.20
2018-01-22T17:55:08.760Z,6.20
2018-01-22T17:57:36.193Z,6.10
2018-01-22T18:00:03.796Z,6.10
2018-01-22T18:02:31.232Z,6.10
2018-01-22T18:04:59.469Z,6.10
2018-01-22T18:07:26.957Z,6.10
2018-01-22T18:09:55.157Z,6.10
2018-01-22T18:12:22.609Z,6.10
2018-01-22T18:14:50.068Z,6.10
2018-01-22T18:17:17.536Z,6.10
2018-01-22T18:19:45.894Z,6.10
2018-01-22T18:25:03.796Z,6.10
2018-01-22T18:27:31.236Z,6.10
2018-01-22T18:29:58.896Z,6.10
2018-01-22T18:32:26.336Z,6.10
2018-01-22T18:34:54.667Z,6.00
2018-01-22T18:37:22.519Z,6.10
2018-01-22T18:39:49.980Z,6.10
2018-01-22T18:42:17.434Z,6.10
2018-01-22T18:44:49.797Z,6.10
2018-01-22T18:47:17.233Z,6.10
2018-01-22T18:49:44.667Z,6.00
2018-01-22T18:52:12.140Z,6.00
2018-01-22T18:54:39.620Z,6.00
2018-01-22T18:57:07.251Z,6.00
2018-01-22T18:59:35.689Z,6.00
2018-01-22T19:02:03.160Z,6.10
2018-01-22T19:04:30.600Z,6.10
2018-01-22T19:06:58.056Z,6.10
2018-01-22T19:09:25.517Z,6.00
2018-01-22T19:11:52.967Z,6.10
2018-01-22T19:14:20.405Z,6.10
2018-01-22T19:16:48.183Z,6.10
2018-01-22T19:19:15.620Z,6.10
2018-01-22T19:21:43.090Z,6.10
2018-01-22T19:24:10.532Z,6.10
2018-01-22T19:26:38.049Z,6.10
2018-01-22T19:29:05.537Z,6.10
2018-01-22T19:31:32.997Z,6.10
2018-01-22T19:34:01.547Z,6.10
2018-01-22T19:36:35.569Z,6.10
2018-01-22T19:39:03.924Z,6.10
2018-01-22T19:41:31.402Z,6.10
2018-01-22T19:43:58.874Z,6.10
2018-01-22T19:46:26.346Z,6.10
2018-01-22T19:48:53.821Z,6.10
2018-01-22T19:51:21.263Z,6.10
2018-01-22T19:53:48.813Z,6.10
2018-01-22T19:56:16.252Z,6.10
2018-01-22T19:58:44.448Z,6.10
2018-01-22T20:01:11.916Z,6.10
2018-01-22T20:03:39.476Z,6.10
2018-01-22T20:06:06.924Z,6.10
2018-01-22T20:08:34.360Z,6.10
2018-01-22T20:11:02.758Z,6.10
2018-01-22T20:13:30.192Z,6.10
2018-01-22T20:15:58.391Z,6.10
2018-01-22T20:18:25.847Z,6.10
2018-01-22T20:20:53.313Z,6.10
2018-01-22T20:23:20.744Z,6.10
2018-01-22T20:25:50.509Z,6.10
2018-01-22T20:28:18.708Z,6.10
2018-01-22T20:30:46.148Z,6.10
2018-01-22T20:33:13.610Z,6.10
2018-01-22T20:35:41.252Z,6.10
2018-01-22T20:38:08.693Z,6.10
2018-01-22T20:40:36.916Z,6.10
2018-01-22T20:43:04.360Z,6.10
2018-01-22T20:45:32.104Z,6.10
2018-01-22T20:47:59.544Z,6.10
2018-01-22T20:50:26.981Z,6.10
2018-01-22T20:52:54.476Z,6.10
2018-01-22T20:55:21.915Z,6.10
2018-01-22T20:57:49.361Z,6.10
2018-01-22T21:00:16.825Z,6.10
2018-01-22T21:02:44.269Z,6.10
2018-01-22T21:05:13.633Z,6.10
2018-01-22T21:07:41.076Z,6.10
2018-01-22T21:10:08.813Z,6.10
2018-01-22T21:12:36.240Z,6.10
2018-01-22T21:15:04.442Z,6.10
2018-01-22T21:17:31.913Z,6.10
2018-01-22T21:19:59.677Z,6.10
2018-01-22T21:22:27.126Z,6.10
2018-01-22T21:24:54.548Z,6.00
2018-01-22T21:27:22.913Z,6.10
2018-01-22T21:29:50.373Z,6.00
2018-01-22T21:32:17.807Z,6.10
2018-01-22T21:34:45.317Z,6.10
2018-01-22T21:37:12.752Z,6.10
2018-01-22T21:39:41.225Z,6.10
2018-01-22T21:42:08.663Z,6.00
2018-01-22T21:44:36.095Z,6.10
2018-01-22T21:47:04.728Z,6.00
2018-01-22T21:49:32.938Z,6.10
2018-01-22T21:52:00.401Z,6.00
2018-01-22T21:54:28.853Z,6.10
2018-01-22T21:56:57.052Z,6.00
2018-01-22T21:59:24.519Z,6.00
2018-01-22T22:01:52.196Z,6.00
2018-01-22T22:04:20.672Z,6.00
2018-01-22T22:06:48.132Z,6.00
2018-01-22T22:09:15.577Z,6.00
2018-01-22T22:11:44.280Z,6.00
2018-01-22T22:14:11.709Z,6.00
2018-01-22T22:16:41.191Z,6.00
2018-01-22T22:19:08.841Z,6.00
2018-01-22T22:21:39.053Z,6.00
2018-01-22T22:24:06.683Z,6.00
2018-01-22T22:26:34.129Z,6.00
2018-01-22T22:29:03.524Z,6.00
2018-01-22T22:31:31.913Z,6.00
2018-01-22T22:33:59.379Z,6.00
2018-01-22T22:36:26.829Z,6.00
2018-01-22T22:38:54.381Z,6.00
2018-01-22T22:41:22.048Z,6.00
2018-01-22T22:43:49.592Z,6.00
2018-01-22T22:46:17.216Z,6.00
2018-01-22T22:48:44.896Z,6.00
2018-01-22T22:51:13.084Z,6.00
2018-01-22T22:53:40.698Z,5.90
2018-01-22T22:56:08.119Z,5.90
2018-01-22T22:58:35.711Z,5.90
2018-01-22T23:01:03.429Z,5.90
2018-01-22T23:03:30.860Z,5.90
2018-01-22T23:05:58.336Z,5.90
2018-01-22T23:08:26.645Z,5.90
2018-01-22T23:10:54.120Z,5.90
2018-01-22T23:13:21.548Z,5.90
2018-01-22T23:15:48.984Z,5.90
2018-01-22T23:18:17.259Z,5.90
2018-01-22T23:20:45.604Z,5.90
2018-01-22T23:23:15.120Z,5.80
2018-01-22T23:25:43.599Z,5.90
2018-01-22T23:28:12.307Z,5.90
2018-01-22T23:30:41.475Z,5.90
2018-01-22T23:33:08.917Z,5.80
2018-01-22T23:35:36.713Z,5.90
2018-01-22T23:38:21.300Z,5.80
2018-01-22T23:40:49.915Z,5.80
2018-01-22T23:43:17.648Z,5.80
2018-01-22T23:45:45.981Z,5.80
2018-01-22T23:48:13.411Z,5.80
2018-01-22T23:50:40.969Z,5.80
2018-01-22T23:53:08.428Z,5.80
2018-01-22T23:55:35.855Z,5.80
2018-01-22T23:58:03.402Z,5.80
